Time;durP1;ratioP1;P1;durP2;ratioP2;P2;SDS_P1;SDS_P2;PMS_P1;PMS_P2;Temp;Humidity;BMP_temperature;BMP_pressure;BME280_temperature;BME280_humidity;BME280_pressure;Samples;Min_cycle;Max_cycle;Signal;HPM_P1;HPM_P2
2023/05/16 00:00:33;;;;;;;7.93;6.07;;;16.90;81.00;;;;;;4922941;29;20028;-84
2023/05/16 00:03:00;;;;;;;6.82;5.35;;;16.90;81.00;;;;;;4923525;29;20024;-84
2023/05/16 00:05:25;;;;;;;7.45;5.57;;;16.80;80.90;;;;;;4921179;29;20031;-86
2023/05/16 00:07:51;;;;;;;7.75;5.95;;;16.80;81.00;;;;;;4919031;29;20051;-86
2023/05/16 00:10:17;;;;;;;7.70;5.70;;;16.80;81.00;;;;;;4922338;29;20039;-87
2023/05/16 00:12:43;;;;;;;7.47;5.40;;;16.80;81.00;;;;;;4922225;29;20452;-84
2023/05/16 00:15:12;;;;;;;7.88;5.30;;;16.80;81.00;;;;;;4922112;29;20115;-87
2023/05/16 00:17:39;;;;;;;7.03;5.03;;;16.80;80.70;;;;;;4921626;29;20020;-84
2023/05/16 00:20:10;;;;;;;6.72;5.03;;;16.70;80.80;;;;;;4921642;29;20060;-83
2023/05/16 00:22:36;;;;;;;;;;;16.70;80.80;;;;;;4922585;29;20401;-83
2023/05/16 00:25:02;;;;;;;7.00;5.15;;;16.70;80.80;;;;;;4923619;29;19907;-85
2023/05/16 00:27:28;;;;;;;6.80;5.00;;;16.70;80.90;;;;;;4924939;29;20028;-85
2023/05/16 00:29:54;;;;;;;7.22;4.90;;;16.70;80.90;;;;;;4924733;29;20378;-85
2023/05/16 00:32:19;;;;;;;6.85;5.28;;;16.70;80.90;;;;;;4941355;29;20433;-86
2023/05/16 00:34:45;;;;;;;8.18;5.85;;;16.70;81.00;;;;;;4921147;29;20110;-85
2023/05/16 00:37:10;;;;;;;7.28;5.25;;;16.70;80.90;;;;;;4923839;29;20031;-85
2023/05/16 00:39:36;;;;;;;7.28;5.20;;;16.70;81.00;;;;;;4923559;29;20023;-85
2023/05/16 00:42:01;;;;;;;7.95;5.28;;;16.70;81.10;;;;;;4941045;29;20409;-85
2023/05/16 00:44:27;;;;;;;7.40;5.20;;;16.70;81.10;;;;;;4923613;29;20111;-85
2023/05/16 00:46:53;;;;;;;6.55;4.88;;;16.70;81.20;;;;;;4923292;29;20452;-85
2023/05/16 00:49:18;;;;;;;6.47;4.90;;;16.70;81.10;;;;;;4923662;29;20024;-85
2023/05/16 00:51:44;;;;;;;7.78;4.97;;;16.70;81.20;;;;;;4923022;29;20043;-85
2023/05/16 00:54:10;;;;;;;7.47;4.82;;;16.70;81.20;;;;;;4923107;29;20023;-86
2023/05/16 00:56:36;;;;;;;6.90;5.13;;;16.70;81.20;;;;;;4939164;29;20159;-85
2023/05/16 00:59:02;;;;;;;7.07;4.90;;;16.70;81.10;;;;;;4920907;29;20490;-85
2023/05/16 01:01:28;;;;;;;6.57;4.75;;;16.70;81.20;;;;;;4921276;29;20031;-85
2023/05/16 01:03:54;;;;;;;6.75;4.70;;;16.70;81.10;;;;;;4937951;29;20400;-85
2023/05/16 01:06:20;;;;;;;6.53;4.53;;;16.70;81.10;;;;;;4921882;29;20035;-83
2023/05/16 01:08:45;;;;;;;7.35;4.75;;;16.70;81.40;;;;;;4920622;29;20028;-84
2023/05/16 01:11:48;;;;;;;7.60;5.43;;;16.70;81.10;;;;;;4920728;29;20027;-85
2023/05/16 01:14:41;;;;;;;6.63;4.70;;;16.70;81.60;;;;;;4920396;29;20036;-84
2023/05/16 01:17:22;;;;;;;6.63;4.70;;;16.70;81.00;;;;;;4937860;29;20048;-85
2023/05/16 01:19:54;;;;;;;6.25;4.65;;;16.80;81.10;;;;;;4921200;29;20024;-84
2023/05/16 01:22:36;;;;;;;7.65;4.80;;;16.80;81.00;;;;;;4937654;29;20038;-84
2023/05/16 01:25:23;;;;;;;5.97;4.40;;;16.80;81.00;;;;;;4920079;29;20068;-85
2023/05/16 01:27:51;;;;;;;6.45;4.57;;;16.80;80.90;;;;;;4921004;29;20054;-85
2023/05/16 01:30:18;;;;;;;6.57;4.65;;;16.80;80.90;;;;;;4921143;29;20060;-86
2023/05/16 01:32:45;;;;;;;6.05;4.20;;;16.90;80.90;;;;;;4920977;29;20038;-85
2023/05/16 01:35:14;;;;;;;5.85;4.05;;;16.80;80.80;;;;;;4936578;29;20477;-85
2023/05/16 01:37:53;;;;;;;6.50;4.25;;;16.80;80.90;;;;;;4920639;29;20122;-85
2023/05/16 01:40:27;;;;;;;6.50;4.05;;;16.80;80.70;;;;;;4920459;29;20493;-85
2023/05/16 01:42:54;;;;;;;6.13;4.10;;;16.80;80.60;;;;;;4920551;29;20500;-85
2023/05/16 01:45:28;;;;;;;6.45;4.10;;;16.80;80.70;;;;;;4919869;29;20408;-84
2023/05/16 01:48:06;;;;;;;5.95;3.70;;;16.80;80.60;;;;;;4936891;29;20032;-85
2023/05/16 01:50:35;;;;;;;6.57;4.10;;;16.80;80.70;;;;;;4919888;29;20624;-85
2023/05/16 01:53:08;;;;;;;6.68;3.88;;;16.80;80.60;;;;;;4919722;29;20031;-85
2023/05/16 01:55:36;;;;;;;5.60;3.72;;;16.70;80.60;;;;;;4919639;29;20055;-84
2023/05/16 01:58:03;;;;;;;5.18;3.47;;;16.70;80.50;;;;;;4920022;29;20028;-85
2023/05/16 02:00:30;;;;;;;6.07;3.33;;;16.70;80.60;;;;;;4920168;29;20477;-85
2023/05/16 02:02:56;;;;;;;5.47;3.20;;;16.70;80.60;;;;;;4919671;29;20407;-86
2023/05/16 02:05:21;;;;;;;6.25;3.80;;;16.70;80.50;;;;;;4936719;29;20023;-85
2023/05/16 02:07:47;;;;;;;5.90;3.58;;;16.70;80.50;;;;;;4919502;29;20123;-87
2023/05/16 02:10:13;;;;;;;6.05;3.50;;;16.70;80.60;;;;;;4940094;29;20228;-86
2023/05/16 02:12:38;;;;;;;5.95;3.70;;;16.70;80.60;;;;;;4941338;29;20032;-86
2023/05/16 02:15:04;;;;;;;4.70;3.20;;;16.70;80.70;;;;;;4941955;29;20392;-86
2023/05/16 02:17:30;;;;;;;6.13;3.15;;;16.60;80.60;;;;;;4924429;29;20028;-85
2023/05/16 02:19:56;;;;;;;5.20;3.28;;;16.60;80.60;;;;;;4924825;29;20032;-86
2023/05/16 02:22:21;;;;;;;6.15;3.38;;;16.60;80.60;;;;;;4924745;29;20556;-84
2023/05/16 02:24:47;;;;;;;5.45;3.30;;;16.70;80.60;;;;;;4941557;29;20063;-85
2023/05/16 02:27:12;;;;;;;5.25;3.15;;;16.60;80.60;;;;;;4924810;29;20084;-86
2023/05/16 02:29:38;;;;;;;6.75;3.47;;;16.60;80.70;;;;;;4941773;29;20027;-86
2023/05/16 02:32:03;;;;;;;5.20;3.00;;;16.60;80.70;;;;;;4924143;29;20082;-86
2023/05/16 02:34:29;;;;;;;6.18;3.03;;;16.60;80.70;;;;;;4923055;29;20032;-86
2023/05/16 02:36:54;;;;;;;4.90;3.05;;;16.60;80.70;;;;;;4923426;29;20032;-85
2023/05/16 02:39:20;;;;;;;5.10;3.00;;;16.60;80.70;;;;;;4940688;29;20031;-86
2023/05/16 02:41:45;;;;;;;5.05;2.97;;;16.60;80.70;;;;;;4922671;29;20116;-86
2023/05/16 02:44:11;;;;;;;5.38;3.00;;;16.60;80.70;;;;;;4920276;29;20024;-85
2023/05/16 02:46:36;;;;;;;5.00;3.00;;;16.60;80.70;;;;;;4939187;29;20063;-85
2023/05/16 02:49:02;;;;;;;5.35;3.00;;;16.60;80.60;;;;;;4930172;29;20031;-86
2023/05/16 02:51:28;;;;;;;5.97;3.25;;;16.60;80.60;;;;;;4941837;29;20463;-85
2023/05/16 02:53:58;;;;;;;6.32;3.10;;;16.60;80.60;;;;;;4941390;29;20065;-86
2023/05/16 02:56:25;;;;;;;5.90;3.10;;;16.70;80.60;;;;;;4940719;29;20058;-85
2023/05/16 02:58:52;;;;;;;5.00;2.55;;;16.70;80.60;;;;;;4959851;29;20024;-87
2023/05/16 03:01:17;;;;;;;4.68;2.83;;;16.70;80.60;;;;;;4944263;29;20034;-87
2023/05/16 03:03:43;;;;;;;4.88;2.67;;;16.70;80.60;;;;;;4943380;29;20040;-85
2023/05/16 03:06:08;;;;;;;6.00;3.13;;;16.70;80.60;;;;;;4942905;29;20023;-85
2023/05/16 03:08:34;;;;;;;5.18;3.00;;;16.80;80.60;;;;;;4959644;29;20031;-85
2023/05/16 03:10:59;;;;;;;5.00;2.55;;;16.70;80.40;;;;;;4939680;29;20055;-85
2023/05/16 03:13:25;;;;;;;5.32;2.80;;;16.80;80.50;;;;;;4942235;29;20424;-84
2023/05/16 03:15:51;;;;;;;5.13;2.50;;;16.80;80.40;;;;;;4942086;29;20056;-86
2023/05/16 03:18:17;;;;;;;4.75;2.70;;;16.80;80.50;;;;;;4941930;29;20118;-86
2023/05/16 03:20:42;;;;;;;4.40;2.30;;;16.80;80.40;;;;;;4941923;29;20043;-86
2023/05/16 03:23:07;;;;;;;4.68;2.60;;;16.80;80.50;;;;;;4942745;29;20087;-86
2023/05/16 03:25:35;;;;;;;4.45;2.50;;;16.80;80.40;;;;;;4942272;29;20549;-86
2023/05/16 03:28:09;;;;;;;4.90;2.60;;;16.70;80.30;;;;;;4942019;29;20031;-86
2023/05/16 03:30:35;;;;;;;4.15;2.40;;;16.70;80.30;;;;;;4937672;29;20654;-78
2023/05/16 03:33:00;;;;;;;5.78;2.75;;;16.70;80.40;;;;;;4925473;29;20030;-82
2023/05/16 03:35:27;;;;;;;4.57;2.47;;;16.70;80.40;;;;;;4905168;29;20038;-81
2023/05/16 03:37:53;;;;;;;5.13;2.20;;;16.60;80.40;;;;;;4898119;29;20119;-82
2023/05/16 03:40:19;;;;;;;4.80;2.35;;;16.60;80.00;;;;;;4916404;29;20134;-82
2023/05/16 03:42:44;;;;;;;5.00;2.20;;;16.60;80.40;;;;;;4916258;29;20024;-81
2023/05/16 03:45:10;;;;;;;5.25;2.35;;;16.60;80.30;;;;;;4915432;29;20686;-82
2023/05/16 03:47:36;;;;;;;5.00;2.30;;;16.60;80.30;;;;;;4917009;29;20042;-82
2023/05/16 03:50:02;;;;;;;4.53;2.20;;;16.60;80.30;;;;;;4916698;29;20030;-78
2023/05/16 03:52:28;;;;;;;4.80;2.20;;;16.60;80.20;;;;;;4917216;29;20170;-80
2023/05/16 03:54:53;;;;;;;4.65;2.33;;;16.60;80.20;;;;;;4932456;29;20099;-79
2023/05/16 03:57:19;;;;;;;4.65;2.30;;;16.60;80.10;;;;;;4929141;29;20027;-77
2023/05/16 03:59:44;;;;;;;4.47;2.38;;;16.60;80.20;;;;;;4930999;29;20051;-78
2023/05/16 04:02:10;;;;;;;6.13;2.45;;;16.60;80.20;;;;;;4915975;29;20118;-78
2023/05/16 04:04:35;;;;;;;3.88;2.00;;;16.60;80.30;;;;;;4917498;29;20118;-77
2023/05/16 04:07:01;;;;;;;6.75;2.30;;;16.60;80.20;;;;;;4936768;29;20053;-80
2023/05/16 04:09:27;;;;;;;4.18;1.88;;;16.60;80.20;;;;;;4919801;29;20039;-81
2023/05/16 04:11:55;;;;;;;4.82;1.92;;;16.60;80.20;;;;;;4938323;29;20042;-79
2023/05/16 04:14:20;;;;;;;5.53;2.40;;;16.60;80.10;;;;;;4937390;29;20024;-79
2023/05/16 04:16:46;;;;;;;6.70;2.70;;;16.60;80.10;;;;;;4983488;23;20048;-77
2023/05/16 04:19:56;;;;;;;5.47;2.30;;;16.50;80.10;;;;;;4901617;29;20119;-84
2023/05/16 04:23:21;;;;;;;4.15;2.00;;;16.50;80.20;;;;;;4917210;29;20031;-81
2023/05/16 04:30:57;;;;;;;4.43;2.08;;;16.50;80.10;;;;;;4935711;29;20051;-81
2023/05/16 04:33:23;;;;;;;4.43;1.90;;;16.60;80.10;;;;;;4919931;29;20040;-80
2023/05/16 04:35:48;;;;;;;4.18;2.10;;;16.60;80.10;;;;;;4920043;29;20443;-78
2023/05/16 04:38:15;;;;;;;5.95;2.25;;;16.60;80.00;;;;;;4919804;29;20457;-81
2023/05/16 04:40:43;;;;;;;4.20;1.90;;;16.60;80.00;;;;;;4919943;29;20122;-82
2023/05/16 04:43:09;;;;;;;5.03;1.90;;;16.60;79.90;;;;;;4917996;29;20040;-82
2023/05/16 04:45:35;;;;;;;5.35;1.90;;;16.60;79.80;;;;;;4904696;29;20055;-78
2023/05/16 04:48:01;;;;;;;4.90;1.83;;;16.60;79.80;;;;;;4902014;29;20083;-82
2023/05/16 04:50:27;;;;;;;4.95;1.70;;;16.70;79.90;;;;;;4917917;29;20397;-81
2023/05/16 04:52:52;;;;;;;5.15;2.40;;;16.70;79.80;;;;;;4899606;29;20352;-81
2023/05/16 04:55:18;;;;;;;4.75;1.88;;;16.70;79.80;;;;;;4907263;29;20489;-81
2023/05/16 04:57:44;;;;;;;2.97;1.60;;;16.80;79.90;;;;;;4910756;29;20149;-81
2023/05/16 05:00:11;;;;;;;4.88;1.95;;;16.70;79.70;;;;;;4900666;29;20107;-83
2023/05/16 05:02:43;;;;;;;6.18;2.30;;;16.70;79.70;;;;;;4899788;29;20032;-82
2023/05/16 05:10:13;;;;;;;4.78;2.05;;;16.70;79.50;;;;;;4938426;29;20064;-80
2023/05/16 05:12:38;;;;;;;5.43;1.98;;;16.70;79.50;;;;;;4938568;29;20043;-82
2023/05/16 05:15:05;;;;;;;5.07;1.85;;;16.60;79.50;;;;;;4936837;29;20024;-79
2023/05/16 05:17:31;;;;;;;5.32;1.95;;;16.60;79.50;;;;;;4921695;29;20051;-77
2023/05/16 05:19:57;;;;;;;6.07;1.90;;;16.70;79.50;;;;;;4920299;29;20031;-77
2023/05/16 05:22:23;;;;;;;4.32;1.67;;;16.60;79.30;;;;;;4919877;29;20055;-79
2023/05/16 05:24:48;;;;;;;6.15;2.00;;;16.60;79.30;;;;;;4922005;29;20035;-79
2023/05/16 05:27:14;;;;;;;7.68;2.10;;;16.60;78.80;;;;;;4925685;29;20032;-81
2023/05/16 05:29:40;;;;;;;9.13;2.13;;;16.60;77.80;;;;;;4924495;29;20079;-79
2023/05/16 05:32:07;;;;;;;7.18;2.00;;;16.60;78.00;;;;;;4925454;29;20024;-82
2023/05/16 05:34:32;;;;;;;7.47;1.60;;;16.50;78.00;;;;;;4919797;29;20525;-82
2023/05/16 05:36:58;;;;;;;6.07;1.98;;;16.50;78.10;;;;;;4935161;23;20082;-81
2023/05/16 05:39:24;;;;;;;8.13;2.03;;;16.60;78.40;;;;;;4919462;29;20028;-82
2023/05/16 05:41:50;;;;;;;6.82;2.22;;;16.60;78.40;;;;;;4934419;29;20063;-82
2023/05/16 05:44:15;;;;;;;5.78;1.60;;;16.60;78.30;;;;;;4934403;29;20063;-82
2023/05/16 05:46:41;;;;;;;6.25;1.90;;;16.60;78.50;;;;;;4922704;29;20021;-81
2023/05/16 05:49:07;;;;;;;6.75;1.75;;;16.60;78.60;;;;;;4916264;29;20378;-83
2023/05/16 05:51:32;;;;;;;7.25;2.08;;;16.60;78.50;;;;;;4899317;29;20123;-82
2023/05/16 05:53:58;;;;;;;7.00;2.20;;;16.60;78.70;;;;;;4899466;29;20031;-82
2023/05/16 05:56:23;;;;;;;6.97;2.00;;;16.60;78.60;;;;;;4900217;29;20392;-83
2023/05/16 05:58:50;;;;;;;5.65;1.70;;;16.60;78.70;;;;;;4900281;29;20445;-82
2023/05/16 06:01:15;;;;;;;6.93;1.67;;;16.60;78.60;;;;;;4900220;29;20038;-83
2023/05/16 06:03:41;;;;;;;6.40;2.10;;;16.60;78.60;;;;;;4899970;29;20028;-83
2023/05/16 06:06:07;;;;;;;6.63;1.88;;;16.60;78.70;;;;;;4917000;29;20132;-83
2023/05/16 06:08:33;;;;;;;5.30;1.73;;;16.70;78.70;;;;;;4916875;29;20494;-82
2023/05/16 06:10:59;;;;;;;6.07;1.77;;;16.60;78.50;;;;;;4900045;29;20032;-82
2023/05/16 06:13:25;;;;;;;5.28;1.83;;;16.60;78.50;;;;;;4916282;29;20478;-82
2023/05/16 06:15:51;;;;;;;5.53;1.75;;;16.70;78.60;;;;;;4916659;29;20044;-84
2023/05/16 06:18:17;;;;;;;5.40;1.50;;;16.70;78.50;;;;;;4899625;29;20021;-81
2023/05/16 06:20:42;;;;;;;6.10;1.80;;;16.70;78.60;;;;;;4899833;29;20401;-82
2023/05/16 06:23:07;;;;;;;5.22;1.50;;;16.70;78.60;;;;;;4899494;29;20111;-83
2023/05/16 06:25:33;;;;;;;7.43;1.90;;;16.70;78.40;;;;;;4899432;29;20028;-82
2023/05/16 06:27:58;;;;;;;5.28;1.45;;;16.70;78.40;;;;;;4899697;29;20123;-82
2023/05/16 06:30:24;;;;;;;5.47;1.77;;;16.80;78.10;;;;;;4899678;29;20091;-83
2023/05/16 06:32:50;;;;;;;7.03;1.60;;;16.80;78.10;;;;;;4899472;29;20084;-83
2023/05/16 06:35:15;;;;;;;7.13;1.75;;;16.80;78.20;;;;;;4899375;29;20075;-82
2023/05/16 06:37:41;;;;;;;5.68;1.67;;;16.80;77.90;;;;;;4896227;29;20037;-83
2023/05/16 06:40:07;;;;;;;4.63;1.52;;;16.90;78.00;;;;;;4912645;29;20024;-82
2023/05/16 06:42:32;;;;;;;5.70;1.55;;;16.90;77.90;;;;;;4899459;29;20425;-82
2023/05/16 06:44:58;;;;;;;5.93;1.50;;;16.90;77.70;;;;;;4899127;29;20541;-81
2023/05/16 06:47:23;;;;;;;4.13;1.50;;;16.90;77.70;;;;;;4916021;29;20048;-82
2023/05/16 06:49:49;;;;;;;4.68;1.50;;;16.90;77.70;;;;;;4905622;29;20445;-82
2023/05/16 06:52:15;;;;;;;5.47;1.58;;;16.90;77.70;;;;;;4917983;29;20405;-82
2023/05/16 06:54:41;;;;;;;5.25;1.67;;;16.90;77.70;;;;;;4917848;29;20020;-82
2023/05/16 06:57:07;;;;;;;6.43;1.95;;;16.90;77.50;;;;;;4918037;29;20099;-82
2023/05/16 06:59:33;;;;;;;4.63;1.50;;;16.80;77.40;;;;;;4917820;29;20119;-82
2023/05/16 07:02:00;;;;;;;5.53;1.58;;;16.80;77.30;;;;;;4918010;29;20028;-82
2023/05/16 07:04:25;;;;;;;6.85;1.60;;;16.80;78.00;;;;;;4917746;29;20027;-82
2023/05/16 07:06:51;;;;;;;5.60;1.52;;;16.80;77.60;;;;;;4917926;29;20036;-82
2023/05/16 07:09:17;;;;;;;5.38;1.58;;;16.80;77.90;;;;;;4917916;29;20471;-82
2023/05/16 07:11:43;;;;;;;5.18;1.50;;;16.80;77.80;;;;;;4917763;29;20027;-83
2023/05/16 07:14:08;;;;;;;5.25;1.50;;;16.80;78.00;;;;;;4917740;29;20075;-82
2023/05/16 07:16:34;;;;;;;4.70;1.60;;;16.80;77.90;;;;;;4917776;29;20028;-83
2023/05/16 07:19:00;;;;;;;7.25;1.77;;;16.80;78.20;;;;;;4917716;29;20020;-82
2023/05/16 07:21:25;;;;;;;6.47;1.40;;;16.80;78.30;;;;;;4917536;29;20390;-82
2023/05/16 07:23:51;;;;;;;5.57;1.63;;;16.80;78.00;;;;;;4917583;29;20023;-82
2023/05/16 07:26:17;;;;;;;5.95;1.35;;;16.80;78.20;;;;;;4917627;29;20051;-81
2023/05/16 07:28:43;;;;;;;5.00;1.70;;;16.80;78.10;;;;;;4917584;29;20043;-81
2023/05/16 07:31:08;;;;;;;4.85;1.42;;;16.90;78.10;;;;;;4917866;29;20374;-81
2023/05/16 07:33:34;;;;;;;4.57;1.23;;;16.90;77.90;;;;;;4918053;29;20417;-81
2023/05/16 07:36:00;;;;;;;4.32;1.33;;;16.90;77.80;;;;;;4921477;29;20110;-82
2023/05/16 07:38:25;;;;;;;7.18;1.65;;;17.00;77.80;;;;;;4921527;29;20020;-84
2023/05/16 07:40:51;;;;;;;4.57;1.35;;;17.00;77.60;;;;;;4938659;29;20533;-82
2023/05/16 07:43:17;;;;;;;4.78;1.50;;;17.10;77.60;;;;;;4921397;29;20032;-82
2023/05/16 07:45:42;;;;;;;4.03;1.60;;;17.00;77.40;;;;;;4921276;29;20467;-83
2023/05/16 07:48:08;;;;;;;4.47;1.48;;;17.00;77.40;;;;;;4921452;29;20383;-82
2023/05/16 07:50:34;;;;;;;4.93;1.52;;;17.10;77.30;;;;;;4921222;29;20032;-82
2023/05/16 07:52:59;;;;;;;5.72;1.65;;;17.10;77.30;;;;;;4938371;29;20512;-83
2023/05/16 07:55:25;;;;;;;5.95;1.40;;;17.10;77.30;;;;;;4920916;29;20121;-82
2023/05/16 07:57:51;;;;;;;3.72;1.40;;;17.10;77.30;;;;;;4921259;29;20020;-82
2023/05/16 08:00:17;;;;;;;5.90;1.70;;;17.00;77.20;;;;;;4921218;29;20051;-82
2023/05/16 08:02:43;;;;;;;4.40;1.38;;;17.10;77.30;;;;;;4938290;29;20032;-82
2023/05/16 08:05:08;;;;;;;5.10;1.50;;;17.10;77.20;;;;;;4937946;29;20031;-82
2023/05/16 08:07:34;;;;;;;4.25;1.17;;;17.10;77.10;;;;;;4938168;29;20035;-82
2023/05/16 08:09:59;;;;;;;5.15;1.52;;;17.20;76.90;;;;;;4921108;29;20026;-82
2023/05/16 08:12:26;;;;;;;5.57;1.38;;;17.20;76.70;;;;;;4937832;29;20091;-82
2023/05/16 08:14:51;;;;;;;4.80;1.35;;;17.30;76.50;;;;;;4920708;29;20133;-81
2023/05/16 08:17:17;;;;;;;3.63;1.38;;;17.30;76.30;;;;;;4920898;29;20184;-83
2023/05/16 08:19:42;;;;;;;4.65;1.30;;;17.30;76.20;;;;;;4920785;29;20031;-83
2023/05/16 08:22:08;;;;;;;4.50;1.40;;;17.30;76.10;;;;;;4920903;29;20123;-84
2023/05/16 08:24:34;;;;;;;3.45;1.30;;;17.40;76.00;;;;;;4920600;29;20467;-82
2023/05/16 08:27:00;;;;;;;5.03;1.42;;;17.40;75.90;;;;;;4920753;29;20083;-82
2023/05/16 08:29:25;;;;;;;4.20;1.50;;;17.40;75.60;;;;;;4920469;29;20039;-82
2023/05/16 08:31:51;;;;;;;5.45;1.58;;;17.50;74.70;;;;;;4920732;29;20091;-83
2023/05/16 08:34:17;;;;;;;4.05;1.00;;;17.50;74.90;;;;;;4920275;29;20020;-82
2023/05/16 08:36:42;;;;;;;3.47;1.10;;;17.40;75.20;;;;;;4920455;29;20091;-82
2023/05/16 08:39:10;;;;;;;5.05;1.30;;;17.40;75.70;;;;;;4920610;29;20028;-83
2023/05/16 08:41:36;;;;;;;4.53;1.30;;;17.40;76.00;;;;;;4920388;29;20139;-82
2023/05/16 08:44:02;;;;;;;4.38;1.30;;;17.30;76.10;;;;;;4920108;29;20115;-83
2023/05/16 08:46:28;;;;;;;5.30;1.23;;;17.30;76.20;;;;;;4918680;29;20481;-81
2023/05/16 08:48:57;;;;;;;2.83;1.23;;;17.20;76.30;;;;;;4920256;29;20024;-81
2023/05/16 08:51:25;;;;;;;4.45;1.20;;;17.20;76.30;;;;;;4920184;29;20028;-83
2023/05/16 08:54:00;;;;;;;3.15;1.00;;;17.30;76.50;;;;;;4920133;29;20034;-82
2023/05/16 08:56:26;;;;;;;5.30;1.48;;;17.30;76.30;;;;;;4937022;29;20487;-82
2023/05/16 08:58:54;;;;;;;5.30;1.35;;;17.30;76.20;;;;;;4920279;29;20062;-82
2023/05/16 09:01:20;;;;;;;5.22;1.25;;;17.30;76.30;;;;;;4919873;29;20019;-83
2023/05/16 09:03:47;;;;;;;4.00;1.20;;;17.30;76.30;;;;;;4936847;29;20083;-83
2023/05/16 09:06:13;;;;;;;3.58;1.27;;;17.30;76.30;;;;;;4919872;29;20028;-81
2023/05/16 09:08:38;;;;;;;4.88;1.27;;;17.30;76.30;;;;;;4920045;29;20031;-82
2023/05/16 09:11:04;;;;;;;3.70;1.27;;;17.30;76.20;;;;;;4919981;29;20493;-82
2023/05/16 09:13:29;;;;;;;3.45;1.05;;;17.30;76.20;;;;;;4919474;29;20386;-82
2023/05/16 09:16:13;;;;;;;3.00;1.15;;;17.30;76.10;;;;;;4919884;29;20020;-82
2023/05/16 09:18:40;;;;;;;5.07;1.38;;;17.30;76.00;;;;;;4919734;29;20028;-83
2023/05/16 09:21:08;;;;;;;3.67;1.30;;;17.30;76.00;;;;;;4919794;29;20039;-82
2023/05/16 09:23:34;;;;;;;4.57;1.35;;;17.40;75.90;;;;;;4936509;29;20494;-85
2023/05/16 09:26:00;;;;;;;4.57;1.17;;;17.40;75.90;;;;;;4919510;29;20168;-83
2023/05/16 09:28:26;;;;;;;3.70;1.25;;;17.40;75.80;;;;;;4919391;29;20087;-81
2023/05/16 09:30:53;;;;;;;5.55;1.42;;;17.50;75.70;;;;;;4919624;29;20031;-82
2023/05/16 09:33:21;;;;;;;5.10;1.23;;;17.50;75.80;;;;;;4919325;29;20034;-81
2023/05/16 09:36:00;;;;;;;4.05;1.20;;;17.50;75.70;;;;;;4919492;29;20032;-82
2023/05/16 09:38:27;;;;;;;3.00;1.00;;;17.40;75.70;;;;;;4919506;29;20031;-81
2023/05/16 09:40:53;;;;;;;4.22;1.38;;;17.40;75.80;;;;;;4919592;29;20499;-81
2023/05/16 09:43:24;;;;;;;5.75;1.27;;;17.40;75.80;;;;;;4936141;29;20107;-81
2023/05/16 09:45:49;;;;;;;4.35;1.27;;;17.40;75.90;;;;;;4919362;29;20054;-83
2023/05/16 09:48:16;;;;;;;4.82;1.17;;;17.50;75.90;;;;;;4919311;29;20481;-82
2023/05/16 09:50:48;;;;;;;3.42;1.23;;;17.50;75.70;;;;;;4919215;29;20031;-82
2023/05/16 09:53:14;;;;;;;4.15;1.23;;;17.50;75.50;;;;;;4919028;29;20053;-82
2023/05/16 09:55:39;;;;;;;3.75;1.10;;;17.60;75.30;;;;;;4935855;29;20480;-82
2023/05/16 09:58:05;;;;;;;3.85;1.10;;;17.60;75.20;;;;;;4918712;29;20024;-82
2023/05/16 10:00:32;;;;;;;4.03;1.17;;;17.60;75.20;;;;;;4936257;29;20030;-82
2023/05/16 10:02:59;;;;;;;2.92;1.00;;;17.60;75.20;;;;;;4919105;29;20024;-82
2023/05/16 10:05:30;;;;;;;3.45;1.10;;;17.60;75.20;;;;;;4935683;29;20031;-81
2023/05/16 10:07:56;;;;;;;3.55;1.00;;;17.60;75.30;;;;;;4919011;29;20560;-83
2023/05/16 10:10:23;;;;;;;3.30;1.08;;;17.60;75.30;;;;;;4918855;29;20027;-83
2023/05/16 10:12:50;;;;;;;5.00;1.00;;;17.50;75.50;;;;;;4918982;29;20031;-82
2023/05/16 10:15:16;;;;;;;3.45;1.20;;;17.50;74.70;;;;;;4918768;29;20544;-83
2023/05/16 10:17:44;;;;;;;2.92;1.00;;;17.50;75.10;;;;;;4918604;29;20031;-82
2023/05/16 10:20:11;;;;;;;3.65;1.10;;;17.50;75.60;;;;;;4935792;29;20028;-82
2023/05/16 10:22:41;;;;;;;3.58;1.05;;;17.50;75.70;;;;;;4935491;29;20036;-84
2023/05/16 10:25:16;;;;;;;3.78;1.45;;;17.50;75.50;;;;;;4918641;29;20056;-82
2023/05/16 10:27:42;;;;;;;3.03;1.15;;;17.50;75.40;;;;;;4918587;29;20066;-83
2023/05/16 10:30:09;;;;;;;3.50;1.17;;;17.50;75.60;;;;;;4918575;29;20027;-82
2023/05/16 10:32:36;;;;;;;2.80;0.90;;;17.50;75.60;;;;;;4935440;29;20107;-82
2023/05/16 10:35:02;;;;;;;2.65;1.00;;;17.50;75.60;;;;;;4918304;29;20054;-82
2023/05/16 10:37:32;;;;;;;3.88;1.20;;;17.40;75.70;;;;;;4935263;29;20046;-82
2023/05/16 10:40:01;;;;;;;2.80;0.80;;;17.40;75.80;;;;;;4935415;29;20024;-82
2023/05/16 10:42:27;;;;;;;3.17;0.90;;;17.40;76.00;;;;;;4935102;29;20036;-82
2023/05/16 10:44:55;;;;;;;3.60;1.00;;;17.40;76.00;;;;;;4935135;29;20493;-83
2023/05/16 10:47:20;;;;;;;1.90;0.77;;;17.40;76.00;;;;;;4918204;29;20446;-81
2023/05/16 10:49:46;;;;;;;3.85;1.00;;;17.30;76.00;;;;;;4918279;29;20098;-82
2023/05/16 10:52:14;;;;;;;3.45;1.15;;;17.30;76.00;;;;;;4918194;29;20032;-82
2023/05/16 10:54:41;;;;;;;4.03;0.93;;;17.30;76.70;;;;;;4917617;29;20412;-83
2023/05/16 10:57:16;;;;;;;3.97;1.30;;;17.30;76.20;;;;;;4917989;29;20024;-82
2023/05/16 10:59:46;;;;;;;3.33;1.00;;;17.30;76.20;;;;;;4918051;29;20031;-81
2023/05/16 11:02:31;;;;;;;2.53;0.82;;;17.30;76.20;;;;;;4918110;29;20414;-82
2023/05/16 11:05:00;;;;;;;3.92;1.00;;;17.20;76.10;;;;;;4917867;29;20074;-81
2023/05/16 11:07:32;;;;;;;4.45;1.20;;;17.20;76.20;;;;;;4917786;29;20028;-82
2023/05/16 11:10:05;;;;;;;;;;;17.20;76.30;;;;;;4917937;29;20035;-82
2023/05/16 11:12:37;;;;;;;3.15;0.90;;;17.20;76.10;;;;;;4917830;29;19914;-82
2023/05/16 11:15:23;;;;;;;3.75;1.00;;;17.20;76.10;;;;;;4934808;29;20033;-81
2023/05/16 11:17:49;;;;;;;4.80;1.10;;;17.30;76.20;;;;;;4917768;29;20031;-82
2023/05/16 11:20:33;;;;;;;3.15;1.10;;;17.30;76.20;;;;;;4917947;29;20024;-82
2023/05/16 11:23:20;;;;;;;3.65;1.17;;;17.20;76.10;;;;;;4917904;29;20080;-83
2023/05/16 11:25:57;;;;;;;3.50;1.15;;;17.20;76.10;;;;;;4934675;29;20476;-82
2023/05/16 11:28:24;;;;;;;3.17;0.95;;;17.20;76.00;;;;;;4917923;29;20060;-82
2023/05/16 11:30:54;;;;;;;2.47;0.85;;;17.30;75.90;;;;;;4917826;29;20059;-83
2023/05/16 11:33:19;;;;;;;3.70;0.98;;;17.30;75.70;;;;;;4917545;29;20389;-81
2023/05/16 11:36:05;;;;;;;2.65;0.77;;;17.40;75.40;;;;;;4934424;29;20030;-82
2023/05/16 11:38:31;;;;;;;3.13;0.90;;;17.40;75.20;;;;;;4936312;23;20068;-84
2023/05/16 11:41:07;;;;;;;3.65;0.88;;;17.40;75.00;;;;;;4937973;29;20500;-82
2023/05/16 11:43:38;;;;;;;3.13;0.90;;;17.50;75.00;;;;;;4918095;29;20028;-84
2023/05/16 11:46:03;;;;;;;3.77;0.97;;;17.50;74.80;;;;;;4934279;29;20028;-84
2023/05/16 11:48:29;;;;;;;4.00;1.13;;;17.50;74.80;;;;;;4934996;29;20028;-84
2023/05/16 11:50:55;;;;;;;2.58;0.90;;;17.50;74.90;;;;;;4936577;29;20030;-84
2023/05/16 11:53:21;;;;;;;3.03;0.82;;;17.50;74.80;;;;;;4936492;29;20448;-83
2023/05/16 11:55:50;;;;;;;3.20;0.95;;;17.50;74.90;;;;;;4936212;29;20055;-84
2023/05/16 11:58:16;;;;;;;2.95;0.80;;;17.40;74.30;;;;;;4937033;29;20494;-84
2023/05/16 12:00:49;;;;;;;3.45;1.00;;;17.40;74.50;;;;;;4936423;29;20118;-82
2023/05/16 12:03:14;;;;;;;3.83;0.90;;;17.40;74.70;;;;;;4936490;29;20403;-81
2023/05/16 12:05:51;;;;;;;2.25;0.70;;;17.30;74.80;;;;;;4936618;29;20114;-84
2023/05/16 12:08:16;;;;;;;3.60;0.98;;;17.30;74.90;;;;;;4936424;29;20035;-84
2023/05/16 12:10:41;;;;;;;2.85;0.90;;;17.30;75.30;;;;;;4953626;29;20031;-82
2023/05/16 12:13:07;;;;;;;3.08;0.90;;;17.30;75.60;;;;;;4936227;29;20091;-84
2023/05/16 12:15:33;;;;;;;1.67;0.70;;;17.30;75.90;;;;;;4936016;29;20050;-82
2023/05/16 12:17:59;;;;;;;1.65;0.60;;;17.20;75.80;;;;;;4955642;28;20066;-85
2023/05/16 12:20:24;;;;;;;3.25;0.80;;;17.20;75.90;;;;;;4943096;29;20039;-85
2023/05/16 12:22:51;;;;;;;2.90;0.90;;;17.20;76.10;;;;;;4944092;29;20055;-86
2023/05/16 12:25:28;;;;;;;2.10;1.00;;;17.20;76.00;;;;;;4944358;29;20031;-86
2023/05/16 12:27:56;;;;;;;3.92;1.08;;;17.20;76.00;;;;;;4942601;29;20118;-84
2023/05/16 12:30:25;;;;;;;2.38;0.85;;;17.20;75.80;;;;;;4939574;29;20027;-84
2023/05/16 12:33:08;;;;;;;2.40;0.88;;;17.20;75.80;;;;;;4943485;29;20031;-84
2023/05/16 12:35:36;;;;;;;4.88;0.93;;;17.20;75.80;;;;;;4960938;29;20023;-84
2023/05/16 12:38:07;;;;;;;1.73;0.85;;;17.20;75.80;;;;;;4940186;29;20059;-85
2023/05/16 12:40:35;;;;;;;2.40;0.80;;;17.20;75.70;;;;;;4940240;29;20028;-85
2023/05/16 12:43:01;;;;;;;1.92;0.70;;;17.20;75.80;;;;;;4941838;29;20034;-84
2023/05/16 12:45:27;;;;;;;1.55;0.70;;;17.20;75.80;;;;;;4939410;29;20027;-84
2023/05/16 12:47:53;;;;;;;2.95;0.90;;;17.20;75.70;;;;;;4939256;29;20039;-85
2023/05/16 12:50:18;;;;;;;3.42;0.98;;;17.20;75.60;;;;;;4940558;29;20099;-85
2023/05/16 12:52:52;;;;;;;3.25;1.00;;;17.20;75.60;;;;;;4937502;29;20027;-84
2023/05/16 12:55:19;;;;;;;2.95;0.90;;;17.20;75.60;;;;;;4936344;29;20083;-84
2023/05/16 12:57:46;;;;;;;2.35;0.73;;;17.20;75.60;;;;;;4937028;29;20023;-85
2023/05/16 13:00:13;;;;;;;2.35;0.88;;;17.20;75.50;;;;;;4936489;29;20477;-84